Time;durP1;ratioP1;P1;durP2;ratioP2;P2;SDS_P1;SDS_P2;PMS_P1;PMS_P2;Temp;Humidity;BMP_temperature;BMP_pressure;BME280_temperature;BME280_humidity;BME280_pressure;Samples;Min_cycle;Max_cycle;Signal;HPM_P1;HPM_P2
2024/02/25 00:01:51;;;;;;;12.55;7.35;;;;;;;;;;4995704;28;20102;-47
2024/02/25 00:04:17;;;;;;;12.80;7.43;;;;;;;;;;4998912;28;20065;-53
2024/02/25 00:06:45;;;;;;;13.10;7.75;;;;;;;;;;5000819;28;20101;-53
2024/02/25 00:09:14;;;;;;;12.95;7.55;;;;;;;;;;4998165;28;20030;-50
2024/02/25 00:11:42;;;;;;;12.57;7.38;;;;;;;;;;5007303;28;20033;-52
2024/02/25 00:14:08;;;;;;;12.95;7.60;;;;;;;;;;5003162;28;20532;-50
2024/02/25 00:16:35;;;;;;;12.88;7.50;;;;;;;;;;5001475;28;20026;-55
2024/02/25 00:19:01;;;;;;;12.88;7.60;;;;;;;;;;4998678;28;20480;-52
2024/02/25 00:21:28;;;;;;;13.02;7.60;;;;;;;;;;5007568;28;20405;-52
2024/02/25 00:23:54;;;;;;;13.07;7.70;;;;;;;;;;5006722;28;20075;-51
2024/02/25 00:26:20;;;;;;;13.10;7.70;;;;;;;;;;5003245;28;20022;-49
2024/02/25 00:28:46;;;;;;;13.10;7.70;;;;;;;;;;4995298;28;20148;-56
2024/02/25 00:31:12;;;;;;;12.60;7.30;;;;;;;;;;4987322;28;20608;-55
2024/02/25 00:33:38;;;;;;;12.95;7.55;;;;;;;;;;4987637;28;20030;-53
2024/02/25 00:36:04;;;;;;;13.02;7.60;;;;;;;;;;4987573;28;20084;-55
2024/02/25 00:38:30;;;;;;;12.82;7.50;;;;;;;;;;4987404;28;20097;-50
2024/02/25 00:40:56;;;;;;;12.75;7.43;;;;;;;;;;4987379;28;20026;-54
2024/02/25 00:43:22;;;;;;;12.70;7.40;;;;;;;;;;4986884;28;20409;-52
2024/02/25 00:45:48;;;;;;;12.70;7.43;;;;;;;;;;5002419;28;20025;-53
2024/02/25 00:48:15;;;;;;;12.90;7.63;;;;;;;;;;5009720;28;20069;-50
2024/02/25 00:50:41;;;;;;;12.70;7.50;;;;;;;;;;5009980;28;20037;-52
2024/02/25 00:53:07;;;;;;;12.90;7.50;;;;;;;;;;5009948;28;20113;-52
2024/02/25 00:55:33;;;;;;;12.75;7.60;;;;;;;;;;5008860;28;20492;-51
2024/02/25 00:57:59;;;;;;;12.77;7.43;;;;;;;;;;5009745;28;20064;-55
2024/02/25 01:00:25;;;;;;;12.75;7.40;;;;;;;;;;5009604;28;20389;-49
2024/02/25 01:02:51;;;;;;;12.50;7.28;;;;;;;;;;4990791;28;20026;-51
2024/02/25 01:05:17;;;;;;;12.80;7.40;;;;;;;;;;4989952;28;20101;-54
2024/02/25 01:07:44;;;;;;;13.07;7.60;;;;;;;;;;4989510;28;20089;-55
2024/02/25 01:10:10;;;;;;;13.00;7.60;;;;;;;;;;4990212;28;20081;-53
2024/02/25 01:12:36;;;;;;;12.93;7.55;;;;;;;;;;4989831;28;20477;-58
2024/02/25 01:15:02;;;;;;;12.65;7.40;;;;;;;;;;4990115;28;20034;-51
2024/02/25 01:17:28;;;;;;;12.80;7.45;;;;;;;;;;4988361;28;20018;-53
2024/02/25 01:19:54;;;;;;;12.80;7.50;;;;;;;;;;4989843;28;20499;-54
2024/02/25 01:22:20;;;;;;;12.90;7.50;;;;;;;;;;4988282;28;20054;-55
2024/02/25 01:24:47;;;;;;;12.93;7.63;;;;;;;;;;4989708;28;20088;-54
2024/02/25 01:27:13;;;;;;;13.00;7.60;;;;;;;;;;4990168;28;20084;-54
2024/02/25 01:29:39;;;;;;;12.82;7.45;;;;;;;;;;4989797;28;20037;-53
2024/02/25 01:32:06;;;;;;;13.30;7.90;;;;;;;;;;4989495;28;20085;-54
2024/02/25 01:34:32;;;;;;;13.18;7.80;;;;;;;;;;4990019;28;20168;-50
2024/02/25 01:36:58;;;;;;;12.98;7.55;;;;;;;;;;4989775;28;20033;-54
2024/02/25 01:39:23;;;;;;;13.18;7.80;;;;;;;;;;4989934;28;20027;-54
2024/02/25 01:41:50;;;;;;;13.18;7.70;;;;;;;;;;4989837;28;20100;-55
2024/02/25 01:44:18;;;;;;;13.25;7.78;;;;;;;;;;4989863;28;20031;-56
2024/02/25 01:46:45;;;;;;;12.63;7.40;;;;;;;;;;4989886;28;20030;-55
2024/02/25 01:49:13;;;;;;;12.57;7.35;;;;;;;;;;4989671;28;20031;-52
2024/02/25 01:51:40;;;;;;;12.85;7.50;;;;;;;;;;4989695;28;20050;-54
2024/02/25 01:54:06;;;;;;;12.55;7.35;;;;;;;;;;4989856;28;20117;-53
2024/02/25 01:56:35;;;;;;;12.85;7.50;;;;;;;;;;4989662;28;20540;-52
2024/02/25 01:59:01;;;;;;;;;;;;;;;;;;4990357;28;20041;-55
2024/02/25 02:01:28;;;;;;;12.73;7.40;;;;;;;;;;4989837;28;19906;-55
2024/02/25 02:03:54;;;;;;;12.85;7.50;;;;;;;;;;4988505;28;20046;-54
2024/02/25 02:06:20;;;;;;;12.82;7.53;;;;;;;;;;4989850;28;20453;-57
2024/02/25 02:08:46;;;;;;;13.05;7.60;;;;;;;;;;4989491;28;20062;-59
2024/02/25 02:11:16;;;;;;;12.90;7.53;;;;;;;;;;4989836;28;20049;-55
2024/02/25 02:13:42;;;;;;;13.20;7.75;;;;;;;;;;4989461;28;20034;-56
2024/02/25 02:16:10;;;;;;;13.02;7.57;;;;;;;;;;4989640;28;20398;-52
2024/02/25 02:18:35;;;;;;;13.18;7.80;;;;;;;;;;4989529;28;20021;-53
2024/02/25 02:21:01;;;;;;;13.40;8.27;;;;;;;;;;4992486;28;20026;-51
2024/02/25 02:23:27;;;;;;;13.00;7.57;;;;;;;;;;4993843;28;20046;-54
2024/02/25 02:25:53;;;;;;;13.00;7.60;;;;;;;;;;4999192;28;20034;-55
2024/02/25 02:28:19;;;;;;;13.20;7.70;;;;;;;;;;5009613;28;20061;-50
2024/02/25 02:30:45;;;;;;;13.07;7.68;;;;;;;;;;4993007;28;20030;-51
2024/02/25 02:33:11;;;;;;;13.15;7.75;;;;;;;;;;5003464;28;20026;-50
2024/02/25 02:35:37;;;;;;;13.10;7.63;;;;;;;;;;5011905;28;20018;-53
2024/02/25 02:38:08;;;;;;;12.82;7.45;;;;;;;;;;5013090;28;20361;-54
2024/02/25 02:40:34;;;;;;;13.07;7.60;;;;;;;;;;5012995;28;20040;-53
2024/02/25 02:43:02;;;;;;;13.00;7.60;;;;;;;;;;5012520;28;20083;-53
2024/02/25 02:45:28;;;;;;;13.80;8.98;;;;;;;;;;5012338;28;20021;-53
2024/02/25 02:47:54;;;;;;;12.95;7.57;;;;;;;;;;5012780;28;20455;-54
2024/02/25 02:50:20;;;;;;;13.23;7.80;;;;;;;;;;5009223;28;20123;-55
2024/02/25 02:52:46;;;;;;;12.80;7.40;;;;;;;;;;5001693;28;20490;-53
2024/02/25 02:55:12;;;;;;;12.82;7.45;;;;;;;;;;5003279;28;20037;-54
2024/02/25 02:57:37;;;;;;;13.85;9.02;;;;;;;;;;5012675;28;20034;-52
2024/02/25 03:00:04;;;;;;;12.68;7.38;;;;;;;;;;5012253;28;20053;-55
2024/02/25 03:02:33;;;;;;;12.45;7.25;;;;;;;;;;5012220;28;20113;-51
2024/02/25 03:04:59;;;;;;;13.70;7.97;;;;;;;;;;5011359;28;20068;-50
2024/02/25 03:07:25;;;;;;;12.77;7.45;;;;;;;;;;5009953;28;20061;-51
2024/02/25 03:09:51;;;;;;;12.70;7.40;;;;;;;;;;5010248;28;20377;-53
2024/02/25 03:12:17;;;;;;;13.10;7.60;;;;;;;;;;5011468;28;20028;-52
2024/02/25 03:14:43;;;;;;;12.95;7.53;;;;;;;;;;5011803;28;20384;-54
2024/02/25 03:17:09;;;;;;;13.23;7.70;;;;;;;;;;5011720;28;20080;-52
2024/02/25 03:19:35;;;;;;;13.15;7.72;;;;;;;;;;5011944;28;20025;-55
2024/02/25 03:22:02;;;;;;;12.93;7.50;;;;;;;;;;5011689;28;20040;-54
2024/02/25 03:24:28;;;;;;;12.63;7.32;;;;;;;;;;5012093;28;20132;-54
2024/02/25 03:26:54;;;;;;;13.02;7.60;;;;;;;;;;5012088;28;20488;-53
2024/02/25 03:29:20;;;;;;;12.82;7.47;;;;;;;;;;5011943;28;20029;-52
2024/02/25 03:31:47;;;;;;;13.00;7.53;;;;;;;;;;5011477;28;20513;-56
2024/02/25 03:34:14;;;;;;;12.80;7.70;;;;;;;;;;5011372;28;20026;-54
2024/02/25 03:36:40;;;;;;;13.02;7.60;;;;;;;;;;5011316;28;20017;-53
2024/02/25 03:39:06;;;;;;;12.90;7.50;;;;;;;;;;5011900;28;20632;-53
2024/02/25 03:41:32;;;;;;;12.55;7.30;;;;;;;;;;5011619;28;20033;-53
2024/02/25 03:43:58;;;;;;;12.70;7.40;;;;;;;;;;5011253;28;20117;-55
2024/02/25 03:46:24;;;;;;;12.70;7.40;;;;;;;;;;5011896;28;20117;-53
2024/02/25 03:48:50;;;;;;;12.70;7.40;;;;;;;;;;5011327;28;20076;-50
2024/02/25 03:51:16;;;;;;;12.50;7.28;;;;;;;;;;5011687;28;20022;-55
2024/02/25 03:53:45;;;;;;;12.93;7.53;;;;;;;;;;5011482;28;20071;-52
2024/02/25 03:56:11;;;;;;;12.90;7.50;;;;;;;;;;5011601;28;20025;-54
2024/02/25 03:58:37;;;;;;;12.63;7.40;;;;;;;;;;5011157;28;20024;-54
2024/02/25 04:01:05;;;;;;;12.77;7.40;;;;;;;;;;5010961;28;20022;-53
2024/02/25 04:03:32;;;;;;;11.93;7.00;;;;;;;;;;5010756;28;20087;-55
2024/02/25 04:05:58;;;;;;;12.30;7.18;;;;;;;;;;5010970;28;20080;-52
2024/02/25 04:08:24;;;;;;;12.27;7.18;;;;;;;;;;5010618;28;20065;-52
2024/02/25 04:10:50;;;;;;;12.40;7.20;;;;;;;;;;5010759;28;20033;-53
2024/02/25 04:13:16;;;;;;;12.27;7.18;;;;;;;;;;5010385;28;20029;-51
2024/02/25 04:15:44;;;;;;;12.23;7.10;;;;;;;;;;5010926;28;20018;-53
2024/02/25 04:18:10;;;;;;;11.98;6.95;;;;;;;;;;5010146;28;20457;-56
2024/02/25 04:20:36;;;;;;;12.10;7.05;;;;;;;;;;5010420;28;20030;-52
2024/02/25 04:23:03;;;;;;;12.38;7.20;;;;;;;;;;5010578;28;20030;-53
2024/02/25 04:25:29;;;;;;;12.43;7.20;;;;;;;;;;5010741;28;20053;-54
2024/02/25 04:27:55;;;;;;;12.38;7.20;;;;;;;;;;5010619;28;20373;-52
2024/02/25 04:30:21;;;;;;;12.25;7.10;;;;;;;;;;5009060;28;20132;-53
2024/02/25 04:32:50;;;;;;;12.30;7.20;;;;;;;;;;5010390;28;20029;-53
2024/02/25 04:35:16;;;;;;;11.85;6.95;;;;;;;;;;5010669;28;20022;-52
2024/02/25 04:37:42;;;;;;;11.60;6.80;;;;;;;;;;5010590;28;20033;-53
2024/02/25 04:40:08;;;;;;;12.40;7.20;;;;;;;;;;5008971;28;20026;-51
2024/02/25 04:42:34;;;;;;;12.38;7.20;;;;;;;;;;5009408;28;20045;-51
2024/02/25 04:45:00;;;;;;;12.32;7.20;;;;;;;;;;5010477;28;20400;-50
2024/02/25 04:47:26;;;;;;;12.05;7.07;;;;;;;;;;5010142;28;20491;-53
2024/02/25 04:49:52;;;;;;;12.40;7.20;;;;;;;;;;5008985;28;20041;-53
2024/02/25 04:52:20;;;;;;;12.35;7.20;;;;;;;;;;5010067;28;20053;-55
2024/02/25 04:54:46;;;;;;;12.57;7.28;;;;;;;;;;5010412;28;20025;-51
2024/02/25 04:57:13;;;;;;;12.25;7.15;;;;;;;;;;5010389;28;20373;-54
2024/02/25 04:59:41;;;;;;;12.50;7.30;;;;;;;;;;5009757;28;20018;-56
2024/02/25 05:02:07;;;;;;;12.40;7.20;;;;;;;;;;5009291;28;20032;-50
2024/02/25 05:04:35;;;;;;;12.60;7.30;;;;;;;;;;5010045;28;20125;-54
2024/02/25 05:07:01;;;;;;;12.57;7.30;;;;;;;;;;5009984;28;20026;-52
2024/02/25 05:09:28;;;;;;;12.70;7.60;;;;;;;;;;5010162;28;20037;-51
2024/02/25 05:11:54;;;;;;;12.38;7.60;;;;;;;;;;5009839;28;20044;-57
2024/02/25 05:14:20;;;;;;;12.65;7.35;;;;;;;;;;5009900;28;20429;-54
2024/02/25 05:16:47;;;;;;;12.95;7.50;;;;;;;;;;5009996;28;20069;-56
2024/02/25 05:19:13;;;;;;;12.57;7.30;;;;;;;;;;5009835;28;20051;-53
2024/02/25 05:21:42;;;;;;;12.80;7.40;;;;;;;;;;5009603;28;20057;-51
2024/02/25 05:24:08;;;;;;;12.55;7.30;;;;;;;;;;5009559;28;20022;-56
2024/02/25 05:26:34;;;;;;;12.75;7.38;;;;;;;;;;5009661;28;20022;-52
2024/02/25 05:29:00;;;;;;;13.10;7.70;;;;;;;;;;5009808;28;20041;-53
2024/02/25 05:31:26;;;;;;;12.55;7.35;;;;;;;;;;5009835;28;20065;-51
2024/02/25 05:33:52;;;;;;;12.75;7.43;;;;;;;;;;5009725;28;20112;-55
2024/02/25 05:36:22;;;;;;;13.05;7.70;;;;;;;;;;5009662;28;20635;-54
2024/02/25 05:38:48;;;;;;;13.05;7.70;;;;;;;;;;5009851;28;20037;-55
2024/02/25 05:41:14;;;;;;;13.00;7.60;;;;;;;;;;5010011;28;20026;-52
2024/02/25 05:43:41;;;;;;;13.27;7.80;;;;;;;;;;5009637;28;20036;-53
2024/02/25 05:46:07;;;;;;;13.27;7.80;;;;;;;;;;5007942;28;20050;-58
2024/02/25 05:48:33;;;;;;;13.23;7.85;;;;;;;;;;5009501;28;20026;-54
2024/02/25 05:50:59;;;;;;;13.13;7.70;;;;;;;;;;5009666;28;20120;-54
2024/02/25 05:53:25;;;;;;;12.80;7.47;;;;;;;;;;5009809;28;20126;-54
2024/02/25 05:55:51;;;;;;;12.77;7.47;;;;;;;;;;5013805;28;20488;-55
2024/02/25 05:58:17;;;;;;;12.85;7.50;;;;;;;;;;5013458;28;20022;-52
2024/02/25 06:00:43;;;;;;;12.55;7.30;;;;;;;;;;5013907;28;20033;-54
2024/02/25 06:03:09;;;;;;;12.30;7.20;;;;;;;;;;5013996;28;20053;-51
2024/02/25 06:05:35;;;;;;;12.05;7.05;;;;;;;;;;5014567;28;20030;-57
2024/02/25 06:08:01;;;;;;;12.07;7.03;;;;;;;;;;5014236;28;20499;-54
2024/02/25 06:10:27;;;;;;;12.10;7.00;;;;;;;;;;5013273;28;20044;-56
2024/02/25 06:12:53;;;;;;;12.55;7.30;;;;;;;;;;5012738;28;20040;-52
2024/02/25 06:15:19;;;;;;;12.02;7.00;;;;;;;;;;5012993;28;20112;-56
2024/02/25 06:17:45;;;;;;;12.10;7.20;;;;;;;;;;5013032;28;20018;-55
2024/02/25 06:20:12;;;;;;;12.05;7.03;;;;;;;;;;5011686;28;20080;-54
2024/02/25 06:22:38;;;;;;;12.13;7.10;;;;;;;;;;5012444;28;20057;-54
2024/02/25 06:25:05;;;;;;;11.98;6.97;;;;;;;;;;5009820;28;20041;-56
2024/02/25 06:27:31;;;;;;;12.40;7.20;;;;;;;;;;5024779;28;20097;-56
2024/02/25 06:29:57;;;;;;;11.88;6.95;;;;;;;;;;5003202;28;20026;-56
2024/02/25 06:32:23;;;;;;;12.05;7.00;;;;;;;;;;5012170;28;20361;-52
2024/02/25 06:34:49;;;;;;;11.45;6.72;;;;;;;;;;5012486;28;20034;-55
2024/02/25 06:37:15;;;;;;;11.82;6.93;;;;;;;;;;5012340;28;20459;-55
2024/02/25 06:39:41;;;;;;;12.07;7.00;;;;;;;;;;5012583;28;20022;-53
2024/02/25 06:42:07;;;;;;;11.95;6.93;;;;;;;;;;5012529;28;20065;-52
2024/02/25 06:44:33;;;;;;;11.57;6.75;;;;;;;;;;5012602;28;20022;-52
2024/02/25 06:46:59;;;;;;;12.15;7.07;;;;;;;;;;5012704;28;20049;-55
2024/02/25 06:49:28;;;;;;;11.77;6.88;;;;;;;;;;5012935;28;20116;-57
2024/02/25 06:51:55;;;;;;;11.93;6.95;;;;;;;;;;5012330;28;20040;-56
2024/02/25 06:54:21;;;;;;;12.18;7.07;;;;;;;;;;5011072;28;20049;-54
2024/02/25 06:56:47;;;;;;;12.90;8.13;;;;;;;;;;5012456;28;20149;-54
2024/02/25 06:59:13;;;;;;;11.93;7.00;;;;;;;;;;5012136;28;20057;-55
2024/02/25 07:01:39;;;;;;;12.05;7.00;;;;;;;;;;5011742;28;20569;-55
2024/02/25 07:04:05;;;;;;;12.05;7.05;;;;;;;;;;5012073;28;20034;-55
2024/02/25 07:06:31;;;;;;;12.40;7.20;;;;;;;;;;5011641;28;20025;-58
2024/02/25 07:08:57;;;;;;;12.13;7.10;;;;;;;;;;5011605;28;20376;-56
2024/02/25 07:11:27;;;;;;;12.25;7.13;;;;;;;;;;5012141;28;20109;-53
2024/02/25 07:13:53;;;;;;;12.25;7.13;;;;;;;;;;5012177;28;20034;-55
2024/02/25 07:16:19;;;;;;;12.07;7.10;;;;;;;;;;5012024;28;20033;-54
2024/02/25 07:18:46;;;;;;;12.43;7.28;;;;;;;;;;5010193;28;20025;-51
2024/02/25 07:21:13;;;;;;;12.30;7.13;;;;;;;;;;5011931;28;20083;-55
2024/02/25 07:23:41;;;;;;;12.20;7.18;;;;;;;;;;5011788;28;20065;-55
2024/02/25 07:26:08;;;;;;;12.23;7.10;;;;;;;;;;5011779;28;20034;-52
2024/02/25 07:28:34;;;;;;;12.43;7.22;;;;;;;;;;5003685;28;20030;-51
2024/02/25 07:31:03;;;;;;;12.23;7.10;;;;;;;;;;4995572;28;20110;-50
2024/02/25 07:33:30;;;;;;;12.05;7.10;;;;;;;;;;5011216;28;20105;-53
2024/02/25 07:35:56;;;;;;;12.60;7.38;;;;;;;;;;5011452;28;20036;-52
2024/02/25 07:38:21;;;;;;;12.85;7.53;;;;;;;;;;5011269;28;20369;-58
2024/02/25 07:40:47;;;;;;;12.80;7.40;;;;;;;;;;5011556;28;20044;-56
2024/02/25 07:43:13;;;;;;;12.95;7.50;;;;;;;;;;5010097;28;20606;-54
2024/02/25 07:45:39;;;;;;;12.65;7.40;;;;;;;;;;5011285;28;20021;-51
2024/02/25 07:48:06;;;;;;;12.90;7.43;;;;;;;;;;5011272;28;20091;-55
2024/02/25 07:50:32;;;;;;;13.07;7.60;;;;;;;;;;5011402;28;20441;-53
2024/02/25 07:52:57;;;;;;;13.50;8.20;;;;;;;;;;5010597;28;20115;-52
2024/02/25 07:55:25;;;;;;;13.25;7.93;;;;;;;;;;5011268;28;20053;-55
2024/02/25 07:57:51;;;;;;;13.23;7.88;;;;;;;;;;5011423;28;20156;-56
2024/02/25 08:00:17;;;;;;;13.30;7.90;;;;;;;;;;5010817;28;20191;-56
2024/02/25 08:02:43;;;;;;;13.27;7.75;;;;;;;;;;5003782;28;20049;-56
2024/02/25 08:05:09;;;;;;;13.30;7.88;;;;;;;;;;5004979;28;20077;-57
2024/02/25 08:07:35;;;;;;;13.05;7.60;;;;;;;;;;4993914;28;20106;-55
2024/02/25 08:10:01;;;;;;;13.30;7.80;;;;;;;;;;4993144;28;20423;-56
2024/02/25 08:12:27;;;;;;;13.10;7.68;;;;;;;;;;5009070;28;20368;-52
2024/02/25 08:14:54;;;;;;;13.10;7.70;;;;;;;;;;5010895;28;20019;-55
2024/02/25 08:17:21;;;;;;;12.77;7.45;;;;;;;;;;5009744;28;20594;-54
2024/02/25 08:19:47;;;;;;;12.93;7.50;;;;;;;;;;4999121;28;20023;-51
2024/02/25 08:22:13;;;;;;;12.77;7.43;;;;;;;;;;4990031;28;20467;-52
2024/02/25 08:24:39;;;;;;;12.80;7.63;;;;;;;;;;4991198;28;20035;-56
2024/02/25 08:27:05;;;;;;;12.60;7.30;;;;;;;;;;4991076;28;20026;-52
2024/02/25 08:29:31;;;;;;;12.45;7.22;;;;;;;;;;4990713;28;20027;-51
2024/02/25 08:31:57;;;;;;;12.48;7.30;;;;;;;;;;4990638;28;20201;-56
2024/02/25 08:34:24;;;;;;;13.15;7.70;;;;;;;;;;4990284;28;20097;-52
2024/02/25 08:36:50;;;;;;;12.68;7.38;;;;;;;;;;5002816;28;20022;-53
2024/02/25 08:39:17;;;;;;;13.02;7.60;;;;;;;;;;5010260;28;20041;-54
2024/02/25 08:41:43;;;;;;;12.85;7.50;;;;;;;;;;5010424;28;20029;-55
2024/02/25 08:44:09;;;;;;;12.85;7.55;;;;;;;;;;5010016;28;20092;-57
2024/02/25 08:46:35;;;;;;;12.82;7.53;;;;;;;;;;5008952;28;20026;-54
2024/02/25 08:49:01;;;;;;;12.73;7.38;;;;;;;;;;5010089;28;20534;-54
2024/02/25 08:51:27;;;;;;;12.55;7.28;;;;;;;;;;5010289;28;20030;-54
2024/02/25 08:53:53;;;;;;;12.80;7.50;;;;;;;;;;5009983;28;20079;-56
2024/02/25 08:56:19;;;;;;;12.43;7.20;;;;;;;;;;5009899;28;20091;-57
2024/02/25 08:58:45;;;;;;;12.02;7.00;;;;;;;;;;5010089;28;20026;-60
2024/02/25 09:01:11;;;;;;;12.00;7.00;;;;;;;;;;5009775;28;20105;-56
2024/02/25 09:03:37;;;;;;;12.20;7.10;;;;;;;;;;5009655;28;20029;-58
2024/02/25 09:06:03;;;;;;;12.45;7.20;;;;;;;;;;5008781;28;20080;-57
2024/02/25 09:08:29;;;;;;;12.00;6.95;;;;;;;;;;5008625;28;20022;-58
2024/02/25 09:10:55;;;;;;;11.80;7.00;;;;;;;;;;5009546;28;20064;-57
2024/02/25 09:13:22;;;;;;;12.05;7.05;;;;;;;;;;5009642;28;20041;-55
2024/02/25 09:15:48;;;;;;;12.20;7.10;;;;;;;;;;5009604;28;20405;-54
2024/02/25 09:18:14;;;;;;;11.60;6.80;;;;;;;;;;5008221;28;20029;-56
2024/02/25 09:20:40;;;;;;;11.05;6.45;;;;;;;;;;5010144;28;20395;-55
2024/02/25 09:23:07;;;;;;;11.25;6.60;;;;;;;;;;5009976;28;20030;-58
2024/02/25 09:25:33;;;;;;;11.57;6.80;;;;;;;;;;5008631;28;20157;-58
2024/02/25 09:28:03;;;;;;;11.05;6.47;;;;;;;;;;5010067;28;20026;-55
2024/02/25 09:30:30;;;;;;;10.73;6.30;;;;;;;;;;5014057;28;20026;-56
2024/02/25 09:32:56;;;;;;;11.50;6.70;;;;;;;;;;5013953;28;20025;-56
2024/02/25 09:35:22;;;;;;;11.15;6.60;;;;;;;;;;5014191;28;20096;-58
2024/02/25 09:37:48;;;;;;;11.18;6.53;;;;;;;;;;5014251;28;20058;-55
2024/02/25 09:40:14;;;;;;;10.88;6.38;;;;;;;;;;5014041;28;20443;-58
2024/02/25 09:42:43;;;;;;;11.25;6.60;;;;;;;;;;5013700;28;20095;-57
2024/02/25 09:45:12;;;;;;;11.13;6.53;;;;;;;;;;5014043;28;20076;-53
2024/02/25 09:47:39;;;;;;;11.00;6.50;;;;;;;;;;5013259;28;20053;-56
2024/02/25 09:50:06;;;;;;;10.65;6.28;;;;;;;;;;5011381;28;20476;-54
2024/02/25 09:52:32;;;;;;;10.70;6.30;;;;;;;;;;5011355;28;20031;-57
2024/02/25 09:54:58;;;;;;;11.05;6.50;;;;;;;;;;5010838;28;20018;-53
2024/02/25 09:57:24;;;;;;;11.40;6.70;;;;;;;;;;5012154;28;20018;-55
2024/02/25 09:59:50;;;;;;;11.15;6.55;;;;;;;;;;5011532;28;20371;-56
2024/02/25 10:02:17;;;;;;;11.63;6.80;;;;;;;;;;5011446;28;20034;-55
2024/02/25 10:04:43;;;;;;;11.30;6.60;;;;;;;;;;5013000;28;20033;-55
2024/02/25 10:07:14;;;;;;;11.55;6.75;;;;;;;;;;5012947;28;20396;-56
2024/02/25 10:09:43;;;;;;;11.00;6.55;;;;;;;;;;5013090;28;20041;-54
2024/02/25 10:12:09;;;;;;;10.88;6.38;;;;;;;;;;5012712;28;20030;-55
2024/02/25 10:14:36;;;;;;;11.20;6.50;;;;;;;;;;5013220;28;20028;-51
2024/02/25 10:17:03;;;;;;;11.25;6.60;;;;;;;;;;5012131;28;20033;-57
2024/02/25 10:19:30;;;;;;;11.25;6.60;;;;;;;;;;5013022;28;20033;-54
2024/02/25 10:22:16;;;;;;;10.93;6.40;;;;;;;;;;5012842;28;20108;-54
2024/02/25 10:24:44;;;;;;;11.00;6.47;;;;;;;;;;5011768;28;20030;-53
2024/02/25 10:27:11;;;;;;;11.00;6.40;;;;;;;;;;5012950;28;20022;-55
2024/02/25 10:29:50;;;;;;;11.00;6.47;;;;;;;;;;5011551;28;20018;-55
2024/02/25 10:32:26;;;;;;;11.95;6.70;;;;;;;;;;5012887;28;20033;-55
2024/02/25 10:34:52;;;;;;;11.63;6.72;;;;;;;;;;5013025;28;20029;-56
2024/02/25 10:37:22;;;;;;;11.60;6.80;;;;;;;;;;5012950;28;20022;-52
2024/02/25 10:40:10;;;;;;;11.50;6.80;;;;;;;;;;5011949;28;20037;-54
2024/02/25 10:42:43;;;;;;;11.20;6.60;;;;;;;;;;5012770;28;20105;-52
2024/02/25 10:45:10;;;;;;;10.75;6.32;;;;;;;;;;5013080;28;20068;-54
2024/02/25 10:47:37;;;;;;;10.90;6.40;;;;;;;;;;5011387;28;20112;-53
2024/02/25 10:50:04;;;;;;;10.88;6.40;;;;;;;;;;5012516;28;20037;-53
2024/02/25 10:52:30;;;;;;;11.15;6.53;;;;;;;;;;5012408;28;20306;-51
2024/02/25 10:54:58;;;;;;;11.02;6.45;;;;;;;;;;5011014;28;20022;-55
2024/02/25 10:57:24;;;;;;;11.05;6.47;;;;;;;;;;5010628;28;20025;-56
2024/02/25 10:59:51;;;;;;;11.18;6.53;;;;;;;;;;5010475;28;20033;-57
2024/02/25 11:02:18;;;;;;;11.10;6.50;;;;;;;;;;5010568;28;20030;-56
2024/02/25 11:04:45;;;;;;;10.47;6.17;;;;;;;;;;5010558;28;20522;-55
2024/02/25 11:07:12;;;;;;;10.50;6.20;;;;;;;;;;5010406;28;20080;-57
2024/02/25 11:09:38;;;;;;;10.45;6.18;;;;;;;;;;5008789;28;20030;-52
2024/02/25 11:12:19;;;;;;;10.98;6.45;;;;;;;;;;5008613;28;20132;-54
2024/02/25 11:14:53;;;;;;;11.10;6.50;;;;;;;;;;5011444;28;20029;-53
2024/02/25 11:17:27;;;;;;;10.60;6.20;;;;;;;;;;5011230;28;20447;-55
2024/02/25 11:20:14;;;;;;;10.70;6.28;;;;;;;;;;5011324;28;20026;-55
2024/02/25 11:22:41;;;;;;;10.55;6.20;;;;;;;;;;5011610;28;20026;-54
2024/02/25 11:25:07;;;;;;;10.90;6.40;;;;;;;;;;5010946;28;20080;-54
2024/02/25 11:27:51;;;;;;;10.55;6.20;;;;;;;;;;5011592;28;20141;-54
2024/02/25 11:30:17;;;;;;;9.80;5.75;;;;;;;;;;5011052;28;20038;-56
2024/02/25 11:32:43;;;;;;;10.15;6.00;;;;;;;;;;5009514;28;20103;-57
2024/02/25 11:35:11;;;;;;;9.23;5.50;;;;;;;;;;5012400;28;20079;-55
2024/02/25 11:37:49;;;;;;;9.85;5.90;;;;;;;;;;5011079;28;20266;-52
2024/02/25 11:40:16;;;;;;;9.73;5.70;;;;;;;;;;5009930;28;20030;-54
2024/02/25 11:42:42;;;;;;;9.50;5.63;;;;;;;;;;5010713;28;20037;-55
2024/02/25 11:45:10;;;;;;;10.13;5.95;;;;;;;;;;5009928;28;20026;-57
2024/02/25 11:47:36;;;;;;;10.65;6.28;;;;;;;;;;5009624;28;20032;-53
2024/02/25 11:50:03;;;;;;;10.20;6.00;;;;;;;;;;5010302;28;20042;-55
2024/02/25 11:52:29;;;;;;;9.75;5.75;;;;;;;;;;5010048;28;20021;-54
2024/02/25 11:54:55;;;;;;;9.77;5.75;;;;;;;;;;5011172;28;20050;-52
2024/02/25 11:57:21;;;;;;;11.27;7.32;;;;;;;;;;5011068;28;20369;-56
2024/02/25 11:59:47;;;;;;;10.60;6.20;;;;;;;;;;5011131;28;20033;-52
2024/02/25 12:02:13;;;;;;;10.00;5.90;;;;;;;;;;5010674;28;20030;-54
2024/02/25 12:04:39;;;;;;;9.70;5.70;;;;;;;;;;5010815;28;20109;-55
2024/02/25 12:07:05;;;;;;;10.00;5.90;;;;;;;;;;5009310;28;20168;-53
2024/02/25 12:09:31;;;;;;;9.80;5.80;;;;;;;;;;5010828;28;20026;-53
2024/02/25 12:11:57;;;;;;;10.30;6.00;;;;;;;;;;5010661;28;20301;-56
2024/02/25 12:14:23;;;;;;;10.25;6.00;;;;;;;;;;5010722;28;20022;-54
2024/02/25 12:16:51;;;;;;;9.88;5.80;;;;;;;;;;5009969;28;20038;-52
2024/02/25 12:19:17;;;;;;;9.90;5.80;;;;;;;;;;5009088;28;20018;-54
2024/02/25 12:21:51;;;;;;;9.60;5.70;;;;;;;;;;5010508;28;20440;-53
2024/02/25 12:24:17;;;;;;;10.13;6.00;;;;;;;;;;5010619;28;20049;-56
2024/02/25 12:26:53;;;;;;;10.07;5.93;;;;;;;;;;5010484;28;20022;-55
2024/02/25 12:29:20;;;;;;;9.88;5.80;;;;;;;;;;5010216;28;20021;-57
2024/02/25 12:31:47;;;;;;;10.25;6.00;;;;;;;;;;5009943;28;20018;-54
2024/02/25 12:34:13;;;;;;;9.43;5.55;;;;;;;;;;5010047;28;20022;-50
2024/02/25 12:36:39;;;;;;;9.80;5.80;;;;;;;;;;5008971;28;20032;-55
2024/02/25 12:39:10;;;;;;;9.80;5.80;;;;;;;;;;5010313;28;20022;-53
2024/02/25 12:41:36;;;;;;;10.18;6.00;;;;;;;;;;5009968;28;20014;-52
2024/02/25 12:44:04;;;;;;;10.05;5.95;;;;;;;;;;5010133;28;20404;-55
2024/02/25 12:46:30;;;;;;;9.55;5.63;;;;;;;;;;5010192;28;20045;-57
2024/02/25 12:48:56;;;;;;;10.10;6.00;;;;;;;;;;5010573;28;20095;-57
2024/02/25 12:51:22;;;;;;;10.77;6.30;;;;;;;;;;5010123;28;20038;-55
2024/02/25 12:53:48;;;;;;;11.63;6.80;;;;;;;;;;5009823;28;20083;-54
2024/02/25 12:56:14;;;;;;;11.60;6.72;;;;;;;;;;5009825;28;20381;-55
2024/02/25 12:58:44;;;;;;;11.55;6.75;;;;;;;;;;5009682;28;20345;-53
2024/02/25 13:01:10;;;;;;;11.70;6.85;;;;;;;;;;5009794;28;20112;-54
2024/02/25 13:03:37;;;;;;;11.15;6.55;;;;;;;;;;5009244;28;20109;-51
2024/02/25 13:06:05;;;;;;;11.30;6.70;;;;;;;;;;5009973;28;20033;-52
2024/02/25 13:08:31;;;;;;;10.40;6.10;;;;;;;;;;5014417;28;20026;-52
2024/02/25 13:10:57;;;;;;;10.80;6.40;;;;;;;;;;5008238;28;20061;-52
2024/02/25 13:13:23;;;;;;;10.95;6.40;;;;;;;;;;5008230;28;20512;-53
2024/02/25 13:15:49;;;;;;;10.73;6.30;;;;;;;;;;5008699;28;20144;-53
2024/02/25 13:18:15;;;;;;;10.80;6.35;;;;;;;;;;5007921;28;20109;-53
2024/02/25 13:20:41;;;;;;;10.60;6.20;;;;;;;;;;5008422;28;20476;-51
2024/02/25 13:23:07;;;;;;;10.73;6.32;;;;;;;;;;5009088;28;20045;-56
2024/02/25 13:25:33;;;;;;;11.10;6.47;;;;;;;;;;5009959;28;20522;-59
2024/02/25 13:28:00;;;;;;;11.20;6.53;;;;;;;;;;5006663;28;20076;-55
2024/02/25 13:30:26;;;;;;;11.45;6.70;;;;;;;;;;4999278;28;20014;-53
2024/02/25 13:32:52;;;;;;;10.50;6.15;;;;;;;;;;5000021;28;20411;-52
2024/02/25 13:35:18;;;;;;;11.23;6.60;;;;;;;;;;4994727;28;20124;-56
2024/02/25 13:37:44;;;;;;;11.13;6.50;;;;;;;;;;4989921;28;20583;-55
2024/02/25 13:40:11;;;;;;;11.07;6.50;;;;;;;;;;4989598;28;20073;-55
2024/02/25 13:42:37;;;;;;;11.52;6.80;;;;;;;;;;4989683;28;20022;-54
2024/02/25 13:45:04;;;;;;;11.50;6.70;;;;;;;;;;4989944;28;20491;-54
2024/02/25 13:47:30;;;;;;;11.60;6.80;;;;;;;;;;4989962;28;20101;-57
2024/02/25 13:49:56;;;;;;;10.98;6.38;;;;;;;;;;4999756;28;20030;-61
2024/02/25 13:52:22;;;;;;;11.07;6.40;;;;;;;;;;4997383;28;20081;-56
2024/02/25 13:54:48;;;;;;;11.40;6.70;;;;;;;;;;4994657;28;20034;-55
2024/02/25 13:57:14;;;;;;;12.15;7.10;;;;;;;;;;4989803;28;20396;-53
2024/02/25 13:59:40;;;;;;;11.75;6.82;;;;;;;;;;4989601;28;20485;-58
2024/02/25 14:02:07;;;;;;;12.02;7.00;;;;;;;;;;4989389;28;20031;-54
2024/02/25 14:04:33;;;;;;;11.80;6.90;;;;;;;;;;4997032;28;20412;-59
2024/02/25 14:06:59;;;;;;;11.60;6.80;;;;;;;;;;5001201;28;20027;-55
2024/02/25 14:09:25;;;;;;;11.65;6.82;;;;;;;;;;4989736;28;20108;-52
2024/02/25 14:11:51;;;;;;;12.18;7.10;;;;;;;;;;4989354;28;20469;-57
2024/02/25 14:14:17;;;;;;;12.20;7.10;;;;;;;;;;4989718;28;20121;-54
2024/02/25 14:16:44;;;;;;;12.30;7.20;;;;;;;;;;4993563;28;20023;-57
2024/02/25 14:19:10;;;;;;;11.95;7.00;;;;;;;;;;4993746;28;20510;-53
2024/02/25 14:21:37;;;;;;;11.73;6.85;;;;;;;;;;4993305;28;20023;-56
2024/02/25 14:24:06;;;;;;;12.43;7.20;;;;;;;;;;4992035;28;20113;-55
2024/02/25 14:26:35;;;;;;;12.48;7.25;;;;;;;;;;4993192;28;20054;-54
2024/02/25 14:29:05;;;;;;;12.55;7.30;;;;;;;;;;4993208;28;20026;-55